Flight Track Log - Related Links

Times and Time Zones

All times are in EDT time to prevent confusion due to time zone crossing. See the FDX1347 flight status page for this flight to view local times or setup timezone preferences in your user account.

Time Position Orientation Groundspeed Altitude Reporting Facility
EDT Latitude Longitude Course Direction KTS MPH feet Rate Location/Type
Mon 10:16:43 PM 42.7714 -73.8092 332° Northwest 176 203 1,400  Level Boston Center
Mon 10:17:49 PM 42.8314 -73.8528 332° Northwest 257 296 3,700 2,526 Climbing Boston Center
Mon 10:18:56 PM 42.7992 -73.9314 241° Southwest 247 284 7,000 3,024 Climbing Boston Center
Mon 10:19:56 PM 42.7339 -73.9778 208° Southwest 232 267 10,100 2,200 Climbing Boston Center
Mon 10:20:56 PM 42.6850 -74.0558 230° Southwest 271 312 11,400 1,700 Climbing Boston Center
Mon 10:21:56 PM 42.6247 -74.1725 235° Southwest 336 387 13,500 2,250 Climbing Boston Center
Mon 10:22:56 PM 42.5708 -74.2839 237° Southwest 363 418 15,900 2,200 Climbing Boston Center
Mon 10:23:56 PM 42.5125 -74.4061 237° Southwest 375 432 17,900 1,900 Climbing Boston Center
Mon 10:24:56 PM 42.4583 -74.5225 238° Southwest 387 445 19,700 1,800 Climbing Boston Center
Mon 10:25:56 PM 42.3936 -74.6469 235° Southwest 400 460 21,500 1,900 Climbing Boston Center
Mon 10:26:56 PM 42.3306 -74.7794 237° Southwest 411 473 23,500 1,750 Climbing Boston Center
Mon 10:27:56 PM 42.2672 -74.9092 237° Southwest 416 479 25,000 1,532 Climbing Boston Center
Mon 10:30:04 PM 42.1286 -75.1861 236° Southwest 423 487 28,300 1,436 Climbing New York Center
Mon 10:31:04 PM 42.0631 -75.3214 237° Southwest 428 493 29,500 1,289 Climbing New York Center
Mon 10:32:05 PM 42.0058 -75.4569 240° Southwest 428 493 30,900 1,250 Climbing New York Center
Mon 10:33:04 PM 41.9503 -75.5925 241° Southwest 423 487 32,000 559 Climbing New York Center
Mon 10:34:03 PM 41.8950 -75.7250 241° Southwest 418 481 32,000 500 Level New York Center
Mon 10:35:04 PM 41.8392 -75.8600 241° Southwest 418 481 33,000 1,240 Climbing New York Center
Mon 10:36:04 PM 41.7836 -75.9922 241° Southwest 413 475 34,500 1,488 Climbing New York Center
Mon 10:37:05 PM 41.7322 -76.1186 241° Southwest 400 460 36,000 750 Climbing New York Center
Mon 10:38:04 PM 41.6786 -76.2450 240° Southwest 400 460 36,000  Level New York Center
Mon 10:39:04 PM 41.6269 -76.3683 241° Southwest 400 460 36,000  Level New York Center
Mon 10:40:05 PM 41.5728 -76.4969 241° Southwest 400 460 36,000  Level New York Center
Mon 10:41:03 PM 41.5119 -76.6386 240° Southwest 405 466 36,000  Level New York Center
Mon 10:42:03 PM 41.4575 -76.7639 240° Southwest 399 459 36,000  Level New York Center
Mon 10:43:03 PM 41.4011 -76.8917 240° Southwest 399 459 36,000  Level New York Center
Mon 10:44:04 PM 41.3467 -77.0167 240° Southwest 399 459 36,000  Level New York Center
Mon 10:45:04 PM 41.2922 -77.1414 240° Southwest 399 459 36,000  Level New York Center
Mon 10:46:04 PM 41.2375 -77.2661 240° Southwest 399 459 36,000  Level New York Center
Mon 10:47:05 PM 41.1828 -77.3875 239° Southwest 399 459 36,000  Level New York Center
Mon 10:48:52 PM 41.0836 -77.6161 240° Southwest 400 460 36,000  Level Cleveland Center
Mon 10:49:52 PM 41.0283 -77.7369 239° Southwest 395 455 36,000  Level Cleveland Center
Mon 10:50:52 PM 40.9728 -77.8578 239° Southwest 395 455 36,000  Level Cleveland Center
Mon 10:51:52 PM 40.9194 -77.9808 240° Southwest 395 455 36,000  Level Cleveland Center
Mon 10:52:52 PM 40.8572 -78.0931 234° Southwest 395 455 36,000  Level Cleveland Center
Mon 10:53:52 PM 40.7758 -78.1811 219° Southwest 384 442 36,000  Level Cleveland Center
Mon 10:54:52 PM 40.6942 -78.2692 219° Southwest 379 436 36,000  Level Cleveland Center
Mon 10:55:52 PM 40.6147 -78.3594 221° Southwest 384 442 36,000  Level Cleveland Center
Mon 10:56:52 PM 40.5331 -78.4494 220° Southwest 384 442 36,000  Level Cleveland Center
Mon 10:57:52 PM 40.4556 -78.5447 223° Southwest 384 442 36,000  Level Cleveland Center
Mon 10:58:52 PM 40.3928 -78.6531 233° Southwest 379 436 36,000  Level Cleveland Center
Mon 10:59:52 PM 40.3342 -78.7719 237° Southwest 385 443 36,000  Level Cleveland Center
Mon 11:00:52 PM 40.2819 -78.8903 240° Southwest 385 443 36,000  Level Cleveland Center
Mon 11:01:52 PM 40.2253 -79.0086 238° Southwest 390 449 36,000  Level Cleveland Center
Mon 11:02:52 PM 40.1725 -79.1267 240° Southwest 390 449 36,000  Level Cleveland Center
Mon 11:03:52 PM 40.1197 -79.2336 237° Southwest 390 449 36,000  Level Cleveland Center
Mon 11:04:52 PM 40.0667 -79.3489 239° Southwest 390 449 36,000  Level Cleveland Center
Mon 11:05:52 PM 40.0117 -79.4664 239° Southwest 390 449 36,000  Level Cleveland Center
Mon 11:06:52 PM 39.9483 -79.5975 238° Southwest 390 449 36,000  Level Cleveland Center
Mon 11:07:52 PM 39.8931 -79.7144 238° Southwest 390 449 36,000  Level Cleveland Center
Mon 11:08:52 PM 39.8375 -79.8314 238° Southwest 390 449 36,000  Level Cleveland Center
Mon 11:09:52 PM 39.7819 -79.9483 238° Southwest 390 449 36,000  Level Cleveland Center
Mon 11:10:52 PM 39.7242 -80.0647 237° Southwest 390 449 36,000  Level Cleveland Center
Mon 11:11:52 PM 39.6661 -80.1811 237° Southwest 390 449 36,000  Level Cleveland Center
Mon 11:12:52 PM 39.6083 -80.3000 238° Southwest 395 455 36,000  Level Cleveland Center
Mon 11:13:52 PM 39.5500 -80.4189 238° Southwest 395 455 36,000  Level Cleveland Center
Mon 11:15:08 PM 39.4814 -80.5528 236° Southwest 384 442 36,000  Level Indianapolis Center
Mon 11:16:09 PM 39.4228 -80.6683 237° Southwest 385 443 36,000  Level Indianapolis Center
Mon 11:17:10 PM 39.3661 -80.7836 238° Southwest 382 440 36,000  Level Indianapolis Center
Mon 11:18:11 PM 39.3094 -80.8978 237° Southwest 379 436 36,000  Level Indianapolis Center
Mon 11:19:12 PM 39.2522 -81.0117 237° Southwest 380 437 36,000  Level Indianapolis Center
Mon 11:20:12 PM 39.1950 -81.1253 237° Southwest 380 437 36,000  Level Indianapolis Center
Mon 11:21:13 PM 39.1378 -81.2406 237° Southwest 381 438 36,000  Level Indianapolis Center
Mon 11:22:14 PM 39.0678 -81.3778 237° Southwest 383 441 36,000  Level Indianapolis Center
Mon 11:23:15 PM 39.0094 -81.4931 237° Southwest 388 447 36,000  Level Indianapolis Center
Mon 11:24:16 PM 38.9517 -81.6075 237° Southwest 386 444 36,000  Level Indianapolis Center
Mon 11:25:17 PM 38.8922 -81.7225 236° Southwest 391 450 36,000  Level Indianapolis Center
Mon 11:26:18 PM 38.8333 -81.8378 237° Southwest 392 451 36,000  Level Indianapolis Center
Mon 11:27:19 PM 38.7739 -81.9531 237° Southwest 393 452 36,000  Level Indianapolis Center
Mon 11:28:20 PM 38.7131 -82.0683 236° Southwest 393 452 36,000  Level Indianapolis Center
Mon 11:29:21 PM 38.6531 -82.1842 236° Southwest 393 452 36,000  Level Indianapolis Center
Mon 11:30:22 PM 38.5939 -82.2992 237° Southwest 390 449 36,000  Level Indianapolis Center
Mon 11:31:23 PM 38.5217 -82.4336 236° Southwest 381 438 36,000  Level Indianapolis Center
Mon 11:32:24 PM 38.4697 -82.5333 236° Southwest 375 432 36,000  Level Indianapolis Center
Mon 11:33:25 PM 38.4119 -82.6433 236° Southwest 372 428 36,000  Level Indianapolis Center
Mon 11:34:26 PM 38.3539 -82.7508 235° Southwest 370 426 36,000  Level Indianapolis Center
Mon 11:35:27 PM 38.2872 -82.8764 236° Southwest 367 422 36,000  Level Indianapolis Center
Mon 11:36:28 PM 38.2294 -82.9842 236° Southwest 368 423 36,000  Level Indianapolis Center
Mon 11:37:29 PM 38.1717 -83.0922 236° Southwest 369 425 36,000  Level Indianapolis Center
Mon 11:38:30 PM 38.1139 -83.2028 236° Southwest 373 429 36,000  Level Indianapolis Center
Mon 11:39:31 PM 38.0556 -83.3100 235° Southwest 371 427 36,000  Level Indianapolis Center
Mon 11:40:32 PM 37.9961 -83.4175 235° Southwest 372 428 36,000  Level Indianapolis Center
Mon 11:41:33 PM 37.9364 -83.5283 236° Southwest 379 436 36,000  Level Indianapolis Center
Mon 11:42:34 PM 37.8761 -83.6394 236° Southwest 381 438 36,000  Level Indianapolis Center
Mon 11:43:35 PM 37.8164 -83.7489 235° Southwest 379 436 36,000  Level Indianapolis Center
Mon 11:44:36 PM 37.7558 -83.8611 236° Southwest 385 443 36,000  Level Indianapolis Center
Mon 11:45:37 PM 37.6947 -83.9722 235° Southwest 385 443 36,000  Level Indianapolis Center
Mon 11:46:38 PM 37.6228 -84.1000 235° Southwest 384 442 36,000  Level Indianapolis Center
Mon 11:47:38 PM 37.5614 -84.2103 235° Southwest 384 442 36,000  Level Indianapolis Center
Mon 11:48:39 PM 37.5006 -84.3206 235° Southwest 383 441 36,000  Level Indianapolis Center
Mon 11:49:40 PM 37.4400 -84.4297 235° Southwest 381 438 36,000  Level Indianapolis Center
Mon 11:50:41 PM 37.3786 -84.5383 235° Southwest 382 440 36,000  Level Indianapolis Center
Mon 11:51:42 PM 37.3189 -84.6469 235° Southwest 379 436 36,000  Level Indianapolis Center
Mon 11:52:43 PM 37.2617 -84.7611 238° Southwest 386 444 36,000  Level Indianapolis Center
Mon 11:53:44 PM 37.2122 -84.8786 242° Southwest 383 441 36,000  Level Indianapolis Center
Mon 11:54:45 PM 37.1603 -84.9969 241° Southwest 385 443 36,000  Level Indianapolis Center
Mon 11:55:46 PM 37.1083 -85.1172 242° Southwest 389 448 36,000  Level Indianapolis Center
Mon 11:56:47 PM 37.0536 -85.2361 240° Southwest 394 453 36,000  Level Indianapolis Center
Mon 11:57:47 PM 36.9944 -85.3694 241° Southwest 385 443 36,000  Level Indianapolis Center
Mon 11:58:48 PM 36.9425 -85.4844 241° Southwest 384 442 36,000  Level Indianapolis Center
Mon 11:59:49 PM 36.8950 -85.5903 241° Southwest 385 443 36,000  Level Indianapolis Center
Tue 12:00:50 AM 36.8417 -85.7083 241° Southwest 386 444 36,000  Level Indianapolis Center
Tue 12:01:51 AM 36.7975 -85.8333 246° West 398 458 36,000  Level Indianapolis Center
Tue 12:02:52 AM 36.8239 -85.9756 283° West 434 499 36,000  Level Indianapolis Center
Tue 12:03:53 AM 36.9042 -86.1036 308° West 462 532 36,000  Level Indianapolis Center
Tue 12:04:54 AM 36.9167 -86.2481 276° West 425 489 36,000  Level Indianapolis Center
Tue 12:05:54 AM 36.8603 -86.3639 239° Southwest 391 450 36,000  Level Indianapolis Center
Tue 12:06:39 AM 36.8019 -86.4600 233° Southwest 387 445 36,000  Level Memphis Center
Tue 12:07:38 AM 36.7383 -86.5639 233° Southwest 387 445 36,000  Level Memphis Center
Tue 12:08:38 AM 36.6708 -86.6731 232° Southwest 392 451 36,000  Level Memphis Center
Tue 12:09:38 AM 36.6072 -86.7769 233° Southwest 392 451 36,000  Level Memphis Center
Tue 12:10:38 AM 36.5394 -86.8883 233° Southwest 405 466 36,000  Level Memphis Center
Tue 12:11:38 AM 36.4697 -87.0022 233° Southwest 405 466 36,000  Level Memphis Center
Tue 12:12:38 AM 36.3975 -87.1161 232° Southwest 416 479 36,000  Level Memphis Center
Tue 12:13:38 AM 36.3275 -87.2244 231° Southwest 416 479 36,000 -250 Level Memphis Center
Tue 12:14:38 AM 36.2572 -87.3303 231° Southwest 411 473 35,500 -500 Descending Memphis Center
Tue 12:15:38 AM 36.1867 -87.4408 232° Southwest 411 473 35,000 -450 Descending Memphis Center
Tue 12:16:38 AM 36.1183 -87.5486 232° Southwest 411 473 34,600 -500 Descending Memphis Center
Tue 12:17:38 AM 36.0458 -87.6614 232° Southwest 411 473 34,000 -300 Descending Memphis Center
Tue 12:18:38 AM 35.9731 -87.7717 231° Southwest 416 479 34,000  Level Memphis Center
Tue 12:19:38 AM 35.9003 -87.8842 231° Southwest 416 479 34,000 -50 Level Memphis Center
Tue 12:20:38 AM 35.8378 -87.9833 232° Southwest 416 479 33,900 -1,150 Descending Memphis Center
Tue 12:21:38 AM 35.7647 -88.0953 231° Southwest 421 484 31,700 -2,350 Descending Memphis Center
Tue 12:22:38 AM 35.6997 -88.1994 232° Southwest 414 476 29,200 -2,450 Descending Memphis Center
Tue 12:23:38 AM 35.6244 -88.3139 231° Southwest 402 463 26,800 -2,450 Descending Memphis Center
Tue 12:24:38 AM 35.5553 -88.4125 229° Southwest 397 457 24,300 -2,400 Descending Memphis Center
Tue 12:25:38 AM 35.4817 -88.5061 226° Southwest 385 443 22,000 -2,300 Descending Memphis Center
Tue 12:26:38 AM 35.4097 -88.5917 224° Southwest 376 433 19,700 -2,182 Descending Memphis Center
Tue 12:27:39 AM 35.3464 -88.6744 227° Southwest 376 433 17,600 -2,100 Descending Memphis Center
Tue 12:28:38 AM 35.2786 -88.7650 227° Southwest 364 419 15,500 -2,118 Descending Memphis Center
Tue 12:29:38 AM 35.2108 -88.8450 224° Southwest 353 406 13,400 -2,050 Descending Memphis Center
Tue 12:30:38 AM 35.1450 -88.9275 226° Southwest 348 400 11,400 -1,550 Descending Memphis Center
Tue 12:31:38 AM 35.0833 -89.0072 227° Southwest 333 383 10,300 -1,150 Descending Memphis Center
Tue 12:32:38 AM 35.0319 -89.0867 232° Southwest 307 353 9,100 -1,200 Descending Memphis Center
Tue 12:33:38 AM 35.0350 -89.1803 272° West 261 300 7,900 -1,100 Descending Memphis Center
Tue 12:34:38 AM 35.0400 -89.2692 274° West 266 306 6,900 -1,150 Descending Memphis Center
Tue 12:35:38 AM 35.0408 -89.3553 271° West 253 291 5,600 -1,300 Descending Memphis Center
Tue 12:36:38 AM 35.0414 -89.4414 270° West 253 291 4,300 -800 Descending Memphis Center
Tue 12:37:38 AM 35.0464 -89.5303 274° West 253 291 4,000 -250 Descending Memphis Center
Tue 12:38:38 AM 35.0511 -89.6164 274° West 253 291 3,800 -500 Descending Memphis Center
Tue 12:39:38 AM 35.0514 -89.7025 270° West 253 291 3,000 -450 Descending Memphis Center
Tue 12:40:38 AM 35.0539 -89.7786 272° West 235 270 2,900 -550 Descending Memphis Center
Tue 12:41:38 AM 35.0564 -89.8447 273° West 216 249 1,900 -800 Descending Memphis Center
Tue 12:42:38 AM 35.0567 -89.9031 270° West 192 221 1,300 -650 Descending Memphis Center
Tue 12:43:38 AM 35.0589 -89.9461 274° West 167 192 600 16,850 Descending Memphis Center
Tue 12:44:38 AM 35.0589 -90.0147 270° West 167 192 35,000 17,200 Climbing Memphis Center
Tue 12:45:38 AM 35.0592 -90.0706 270° West 167 192 35,000  Level Memphis Center
Tue 12:47:00 AM 35.0424 -89.9767 270° West  Level Estimated
Tue 12:54:00 AM 35.0424 -89.9767 270° West  Level Estimated
Tue 12:55:00 AM 35.0424 -89.9767 270° West  Level Estimated
Tue 12:56:00 AM 35.0424 -89.9767 270° West  Level Estimated
Tue 12:57:00 AM 35.0424 -89.9767 270° West  Level Estimated
Tue 12:58:00 AM 35.0424 -89.9767 270° West  Level Estimated

Login

Don't have an account? Register now (free) for customized features, flight alerts, and more!